createdAt,value
2023-01-26T00:01:29.315Z,25.30
2023-01-26T00:03:58.017Z,25.13
2023-01-26T00:06:26.460Z,25.24
2023-01-26T00:08:56.060Z,25.19
2023-01-26T00:11:27.839Z,25.31
2023-01-26T00:13:56.716Z,25.48
2023-01-26T00:16:25.242Z,25.30
2023-01-26T00:18:54.005Z,25.32
2023-01-26T00:21:23.791Z,25.11
2023-01-26T00:23:53.368Z,25.12
2023-01-26T00:26:23.508Z,25.20
2023-01-26T00:28:53.863Z,25.56
2023-01-26T00:31:24.959Z,25.21
2023-01-26T00:33:54.411Z,25.12
2023-01-26T00:36:23.056Z,25.46
2023-01-26T00:38:52.405Z,25.52
2023-01-26T00:41:37.976Z,25.67
2023-01-26T00:44:07.610Z,25.12
2023-01-26T00:46:35.650Z,25.37
2023-01-26T00:49:03.609Z,25.22
2023-01-26T00:51:31.618Z,25.24
2023-01-26T00:53:59.571Z,25.29
2023-01-26T00:56:28.231Z,25.40
2023-01-26T00:58:56.245Z,25.33
2023-01-26T01:01:25.747Z,25.33
2023-01-26T01:03:53.773Z,25.73
2023-01-26T01:06:21.743Z,25.70
2023-01-26T01:08:52.056Z,25.26
2023-01-26T01:11:20.026Z,25.66
2023-01-26T01:13:48.014Z,25.63
2023-01-26T01:16:17.035Z,25.75
2023-01-26T01:18:46.348Z,25.43
2023-01-26T01:21:17.112Z,25.89
2023-01-26T01:23:45.243Z,25.53
2023-01-26T01:26:14.300Z,25.46
2023-01-26T01:28:43.485Z,25.81
2023-01-26T01:31:13.844Z,25.79
2023-01-26T01:33:42.660Z,25.93
2023-01-26T01:36:14.200Z,25.37
2023-01-26T01:38:42.489Z,25.51
2023-01-26T01:41:11.134Z,25.56
2023-01-26T01:43:39.516Z,25.54
2023-01-26T01:46:13.077Z,25.36
2023-01-26T01:48:49.673Z,25.49
2023-01-26T01:51:27.195Z,25.61
2023-01-26T01:53:59.862Z,25.50
2023-01-26T01:56:30.218Z,25.59
2023-01-26T01:59:00.967Z,25.60
2023-01-26T02:01:29.318Z,25.96
2023-01-26T02:04:02.175Z,25.50
2023-01-26T02:06:37.217Z,25.54
2023-01-26T02:09:06.911Z,25.57
2023-01-26T02:11:39.685Z,25.71
2023-01-26T02:14:10.877Z,26.00
2023-01-26T02:16:40.004Z,26.02
2023-01-26T02:19:15.815Z,25.99
2023-01-26T02:21:47.817Z,25.62
2023-01-26T02:24:23.743Z,25.67
2023-01-26T02:26:54.660Z,25.73
2023-01-26T02:29:23.735Z,25.70
2023-01-26T02:31:53.582Z,26.09
2023-01-26T02:34:24.310Z,25.64
2023-01-26T02:36:58.845Z,25.68
2023-01-26T02:39:40.098Z,25.69
2023-01-26T02:42:27.612Z,25.56
2023-01-26T02:44:55.949Z,25.79
2023-01-26T02:47:23.910Z,25.57
2023-01-26T02:49:51.063Z,25.67
2023-01-26T02:52:22.761Z,26.02
2023-01-26T02:55:15.109Z,26.04
2023-01-26T02:57:44.879Z,25.83
2023-01-26T03:00:15.433Z,26.08
2023-01-26T03:02:44.055Z,25.74
2023-01-26T03:05:12.101Z,26.04
2023-01-26T03:07:41.258Z,25.55
2023-01-26T03:10:11.861Z,25.73
2023-01-26T03:12:40.348Z,25.73
2023-01-26T03:15:28.737Z,25.89
2023-01-26T03:18:35.644Z,25.90
2023-01-26T03:21:23.036Z,25.70
2023-01-26T03:24:09.387Z,25.83
2023-01-26T03:26:55.205Z,25.90
2023-01-26T03:29:23.293Z,25.52
2023-01-26T03:31:54.348Z,26.11
2023-01-26T03:34:22.659Z,25.72
2023-01-26T03:36:50.708Z,25.75
2023-01-26T03:39:38.169Z,25.87
2023-01-26T03:42:24.255Z,26.04
2023-01-26T03:45:09.452Z,25.78
2023-01-26T03:47:58.298Z,25.74
2023-01-26T03:50:43.686Z,25.68
2023-01-26T03:53:37.249Z,25.99
2023-01-26T03:56:23.219Z,25.83
2023-01-26T03:58:55.342Z,25.83
2023-01-26T04:01:28.066Z,26.12
2023-01-26T04:04:17.610Z,25.99
2023-01-26T04:07:06.863Z,25.66
2023-01-26T04:09:37.731Z,25.76
2023-01-26T04:12:06.452Z,25.63
2023-01-26T04:14:56.762Z,25.76
2023-01-26T04:17:44.578Z,26.10
2023-01-26T04:20:32.743Z,25.67
2023-01-26T04:23:00.938Z,26.06
2023-01-26T04:25:29.542Z,26.21
2023-01-26T04:27:58.736Z,26.03
2023-01-26T04:30:26.828Z,26.19
2023-01-26T04:32:54.958Z,25.83
2023-01-26T04:35:24.465Z,25.99
2023-01-26T04:37:52.585Z,26.12
2023-01-26T04:40:20.846Z,26.10
2023-01-26T04:42:50.543Z,26.07
2023-01-26T04:45:18.894Z,26.23
2023-01-26T04:47:47.726Z,26.04
2023-01-26T04:50:17.700Z,26.18
2023-01-26T04:52:48.760Z,26.11
2023-01-26T04:55:17.302Z,25.77
2023-01-26T04:57:45.637Z,26.23
2023-01-26T05:00:14.574Z,25.78
2023-01-26T05:02:43.187Z,25.97
2023-01-26T05:05:11.678Z,25.66
2023-01-26T05:07:40.358Z,25.79
2023-01-26T05:10:13.888Z,25.82
2023-01-26T05:12:56.650Z,25.94
2023-01-26T05:15:41.663Z,25.87
2023-01-26T05:18:16.910Z,25.66
2023-01-26T05:21:04.501Z,25.68
2023-01-26T05:23:40.553Z,25.73
2023-01-26T05:26:29.754Z,25.70
2023-01-26T05:29:01.768Z,25.64
2023-01-26T05:31:29.913Z,25.76
2023-01-26T05:33:57.904Z,25.68
2023-01-26T05:36:25.977Z,25.81
2023-01-26T05:38:54.659Z,25.78
2023-01-26T05:41:26.228Z,25.95
2023-01-26T05:44:23.254Z,25.78
2023-01-26T05:46:55.993Z,25.82
2023-01-26T05:49:23.929Z,26.12
2023-01-26T05:51:53.110Z,25.57
2023-01-26T05:54:21.235Z,25.70
2023-01-26T05:56:49.235Z,25.76
2023-01-26T05:59:17.455Z,25.63
2023-01-26T06:01:46.880Z,25.91
2023-01-26T06:04:14.949Z,26.05
2023-01-26T06:06:48.609Z,25.63
2023-01-26T06:09:43.507Z,25.94
2023-01-26T06:12:17.956Z,25.88
2023-01-26T06:14:57.854Z,26.05
2023-01-26T06:17:35.958Z,25.90
2023-01-26T06:20:11.447Z,25.88
2023-01-26T06:22:39.737Z,26.06
2023-01-26T06:25:08.271Z,25.99
2023-01-26T06:27:36.815Z,25.86
2023-01-26T06:30:12.880Z,26.10
2023-01-26T06:32:42.963Z,26.26
2023-01-26T06:35:11.197Z,26.16
2023-01-26T06:37:40.957Z,26.02
2023-01-26T06:40:11.188Z,25.80
2023-01-26T06:42:39.318Z,25.95
2023-01-26T06:45:08.587Z,26.04
2023-01-26T06:47:37.005Z,25.73
2023-01-26T06:50:08.864Z,25.84
2023-01-26T06:52:37.650Z,25.87
2023-01-26T06:55:36.176Z,26.00
2023-01-26T06:58:22.813Z,26.31
2023-01-26T07:01:03.249Z,26.03
2023-01-26T07:03:35.017Z,26.26
2023-01-26T07:06:05.956Z,26.10
2023-01-26T07:08:33.992Z,25.77
2023-01-26T07:11:01.963Z,26.12
2023-01-26T07:13:30.137Z,26.10
2023-01-26T07:16:02.777Z,25.92
2023-01-26T07:18:31.446Z,26.19
2023-01-26T07:21:02.444Z,26.07
2023-01-26T07:23:33.924Z,26.21
2023-01-26T07:26:03.055Z,25.94
2023-01-26T07:28:31.580Z,26.06
2023-01-26T07:31:00.042Z,26.04
2023-01-26T07:33:29.342Z,26.11
2023-01-26T07:35:58.096Z,25.93
2023-01-26T07:38:26.619Z,25.71
2023-01-26T07:40:57.925Z,25.93
2023-01-26T07:43:26.063Z,25.99
2023-01-26T07:45:55.761Z,25.86
2023-01-26T07:48:25.303Z,25.53
2023-01-26T07:50:53.383Z,25.95
2023-01-26T07:53:22.906Z,25.53
2023-01-26T07:55:51.016Z,25.48
2023-01-26T07:58:20.347Z,25.59
2023-01-26T08:00:48.449Z,25.63
2023-01-26T08:03:16.514Z,25.46
2023-01-26T08:05:44.495Z,25.68
2023-01-26T08:08:12.718Z,25.57
2023-01-26T08:10:40.734Z,25.45
2023-01-26T08:13:08.810Z,25.35
2023-01-26T08:15:38.095Z,25.28
2023-01-26T08:18:06.175Z,25.56
2023-01-26T08:20:35.213Z,25.47
2023-01-26T08:23:03.229Z,25.01
2023-01-26T08:25:32.923Z,25.05
2023-01-26T08:28:00.927Z,24.92
2023-01-26T08:30:28.797Z,24.71
2023-01-26T08:32:58.939Z,24.67
2023-01-26T08:35:26.966Z,24.79
2023-01-26T08:37:54.916Z,24.58
2023-01-26T08:40:24.744Z,24.74
2023-01-26T08:42:52.952Z,24.45
2023-01-26T08:45:21.121Z,24.87
2023-01-26T08:47:51.467Z,24.45
2023-01-26T08:50:20.959Z,24.74
2023-01-26T08:52:48.903Z,24.73
2023-01-26T08:55:17.034Z,24.66
2023-01-26T08:57:45.216Z,24.23
2023-01-26T09:00:14.917Z,24.29
2023-01-26T09:02:43.283Z,24.58
2023-01-26T09:05:11.604Z,24.54
2023-01-26T09:07:40.953Z,24.30
2023-01-26T09:10:10.914Z,24.18
2023-01-26T09:12:41.061Z,24.03
2023-01-26T09:15:10.200Z,24.34
2023-01-26T09:17:38.338Z,23.93
2023-01-26T09:20:08.295Z,23.71
2023-01-26T09:22:36.339Z,23.78
2023-01-26T09:25:06.536Z,23.81
2023-01-26T09:27:34.582Z,24.04
2023-01-26T09:30:02.841Z,23.74
2023-01-26T09:32:31.056Z,23.96
2023-01-26T09:34:59.056Z,23.61
2023-01-26T09:37:27.197Z,23.52
2023-01-26T09:39:55.183Z,23.52
2023-01-26T09:42:39.053Z,23.49
2023-01-26T09:45:22.953Z,23.38
2023-01-26T09:48:16.859Z,23.57
2023-01-26T09:50:49.731Z,23.24
2023-01-26T09:53:23.032Z,23.43
2023-01-26T09:55:52.421Z,23.27
2023-01-26T09:58:31.364Z,23.20
2023-01-26T10:01:02.412Z,23.62
2023-01-26T10:03:37.117Z,23.49
2023-01-26T10:06:15.338Z,23.56
2023-01-26T10:09:07.293Z,23.52
2023-01-26T10:11:40.298Z,23.14
2023-01-26T10:14:16.701Z,23.03
2023-01-26T10:16:48.288Z,23.33
2023-01-26T10:19:26.836Z,23.06
2023-01-26T10:21:58.727Z,23.33
2023-01-26T10:24:26.693Z,23.04
2023-01-26T10:26:58.247Z,23.13
2023-01-26T10:29:27.696Z,22.99
2023-01-26T10:31:56.229Z,23.02
2023-01-26T10:34:27.257Z,23.14
2023-01-26T10:37:03.055Z,23.22
2023-01-26T10:39:31.014Z,23.18
2023-01-26T10:42:00.319Z,23.13
2023-01-26T10:44:34.995Z,22.92
2023-01-26T10:47:06.120Z,23.28
2023-01-26T10:49:34.344Z,23.05
2023-01-26T10:52:17.541Z,22.94
2023-01-26T10:54:45.829Z,23.52
2023-01-26T10:57:24.728Z,23.22
2023-01-26T10:59:58.015Z,23.76
2023-01-26T11:02:28.844Z,23.43
2023-01-26T11:05:19.480Z,23.77
2023-01-26T11:07:50.023Z,23.57
2023-01-26T11:10:25.335Z,23.48
2023-01-26T11:13:07.988Z,23.38
2023-01-26T11:15:39.864Z,23.62
2023-01-26T11:18:19.956Z,23.38
2023-01-26T11:20:58.674Z,23.48
2023-01-26T11:23:38.973Z,23.09
2023-01-26T11:26:25.880Z,23.59
2023-01-26T11:29:09.277Z,23.24
2023-01-26T11:31:50.848Z,23.39
2023-01-26T11:34:29.221Z,23.32
2023-01-26T11:37:27.689Z,23.36
2023-01-26T11:40:04.852Z,23.18
2023-01-26T11:42:39.865Z,23.00
2023-01-26T11:45:23.109Z,23.14
2023-01-26T11:48:12.370Z,23.00
2023-01-26T11:50:46.681Z,22.77
2023-01-26T11:53:32.789Z,22.83
2023-01-26T11:56:14.393Z,23.24
2023-01-26T11:58:46.360Z,22.76
2023-01-26T12:01:20.327Z,22.95
2023-01-26T12:03:51.643Z,22.95
2023-01-26T12:06:21.645Z,22.83
2023-01-26T12:08:54.769Z,22.79
2023-01-26T12:11:27.401Z,22.96
2023-01-26T12:14:09.009Z,22.60
2023-01-26T12:16:46.174Z,22.57
2023-01-26T12:19:27.906Z,22.80
2023-01-26T12:22:01.833Z,22.43
2023-01-26T12:25:04.973Z,22.78
2023-01-26T12:27:30.715Z,22.59
2023-01-26T12:30:09.664Z,22.58
2023-01-26T12:32:37.686Z,22.36
2023-01-26T12:35:12.516Z,21.98
2023-01-26T12:37:53.851Z,23.07
2023-01-26T12:40:32.459Z,23.47
2023-01-26T12:43:17.507Z,23.40
2023-01-26T12:45:49.232Z,23.43
2023-01-26T12:48:23.241Z,23.68
2023-01-26T12:50:57.077Z,24.04
2023-01-26T12:53:32.080Z,23.54
2023-01-26T12:56:11.454Z,23.67
2023-01-26T12:58:43.076Z,23.40
2023-01-26T13:01:13.918Z,23.09
2023-01-26T13:03:45.045Z,22.81
2023-01-26T13:06:25.637Z,22.78
2023-01-26T13:09:04.372Z,22.50
2023-01-26T13:11:47.379Z,22.62
2023-01-26T13:14:40.005Z,22.12
2023-01-26T13:17:55.771Z,22.02
2023-01-26T13:20:43.374Z,22.19
2023-01-26T13:23:43.883Z,21.82
2023-01-26T13:26:41.314Z,22.07
2023-01-26T13:29:35.459Z,21.93
2023-01-26T13:32:55.197Z,21.82
2023-01-26T13:35:25.631Z,22.28
2023-01-26T13:38:01.830Z,22.52
2023-01-26T13:40:34.480Z,22.49
2023-01-26T13:43:25.307Z,22.55
2023-01-26T13:46:05.065Z,23.19
2023-01-26T13:48:45.164Z,22.96
2023-01-26T13:51:18.406Z,23.00
2023-01-26T13:53:51.153Z,23.14
2023-01-26T13:56:26.579Z,22.80
2023-01-26T13:58:55.026Z,22.86
2023-01-26T14:01:22.954Z,22.92
2023-01-26T14:04:03.902Z,22.51
2023-01-26T14:06:32.554Z,22.57
2023-01-26T14:09:00.579Z,22.56
2023-01-26T14:11:33.452Z,22.73
2023-01-26T14:14:03.092Z,22.52
2023-01-26T14:16:33.375Z,22.45
2023-01-26T14:19:07.330Z,22.35
2023-01-26T14:21:47.484Z,22.07
2023-01-26T14:24:15.546Z,21.99
2023-01-26T14:26:45.193Z,21.87
2023-01-26T14:29:20.705Z,21.80
2023-01-26T14:31:49.771Z,21.74
2023-01-26T14:34:22.426Z,21.74
2023-01-26T14:37:05.333Z,21.80
2023-01-26T14:39:33.412Z,22.19
2023-01-26T14:42:03.724Z,21.74
2023-01-26T14:44:31.813Z,21.71
2023-01-26T14:47:05.720Z,21.74
2023-01-26T14:49:44.475Z,21.78
2023-01-26T14:52:20.886Z,22.22
2023-01-26T14:54:50.291Z,22.49
2023-01-26T14:57:21.901Z,22.82
2023-01-26T14:59:52.654Z,23.24
2023-01-26T15:02:22.836Z,23.50
2023-01-26T15:04:55.415Z,23.75
2023-01-26T15:07:34.518Z,23.61
2023-01-26T15:10:03.511Z,24.06
2023-01-26T15:12:36.865Z,24.46
2023-01-26T15:15:14.126Z,24.99
2023-01-26T15:17:43.564Z,25.00
2023-01-26T15:20:40.020Z,25.88
2023-01-26T15:23:23.516Z,26.38
2023-01-26T15:25:51.682Z,26.94
2023-01-26T15:28:25.849Z,26.94
2023-01-26T15:30:57.187Z,26.62
2023-01-26T15:33:45.570Z,26.56
2023-01-26T15:36:29.019Z,26.59
2023-01-26T15:39:00.990Z,26.49
2023-01-26T15:41:29.806Z,26.74
2023-01-26T15:43:59.596Z,26.56
2023-01-26T15:46:27.995Z,26.08
2023-01-26T15:48:56.078Z,26.22
2023-01-26T15:51:24.113Z,26.12
2023-01-26T15:53:52.010Z,26.29
2023-01-26T15:56:20.042Z,25.74
2023-01-26T15:58:48.023Z,25.95
2023-01-26T16:01:21.814Z,25.61
2023-01-26T16:03:50.410Z,25.23
2023-01-26T16:06:25.108Z,25.37
2023-01-26T16:08:53.729Z,25.77
2023-01-26T16:11:22.316Z,25.00
2023-01-26T16:14:02.429Z,25.13
2023-01-26T16:16:32.770Z,25.07
2023-01-26T16:19:01.042Z,25.42
2023-01-26T16:21:33.227Z,25.30
2023-01-26T16:24:01.963Z,25.09
2023-01-26T16:26:30.609Z,24.62
2023-01-26T16:28:58.949Z,24.95
2023-01-26T16:31:29.777Z,24.34
2023-01-26T16:33:59.927Z,24.63
2023-01-26T16:36:28.168Z,24.34
2023-01-26T16:38:56.238Z,23.81
2023-01-26T16:41:27.146Z,23.67
2023-01-26T16:43:56.522Z,24.02
2023-01-26T16:46:24.917Z,23.38
2023-01-26T16:48:53.199Z,23.67
2023-01-26T16:51:26.393Z,23.40
2023-01-26T16:53:55.539Z,23.81
2023-01-26T16:56:25.507Z,23.85
2023-01-26T16:58:53.513Z,23.49
2023-01-26T17:01:23.234Z,23.79
2023-01-26T17:03:52.006Z,23.38
2023-01-26T17:06:21.941Z,23.72
2023-01-26T17:08:50.581Z,23.67
2023-01-26T17:11:20.635Z,23.27
2023-01-26T17:13:49.259Z,23.69
2023-01-26T17:16:19.625Z,23.55
2023-01-26T17:18:48.640Z,23.39
2023-01-26T17:21:19.076Z,23.55
2023-01-26T17:23:51.164Z,23.42
2023-01-26T17:26:19.806Z,23.58
2023-01-26T17:28:50.106Z,23.52
2023-01-26T17:31:20.634Z,23.49
2023-01-26T17:33:50.842Z,23.12
2023-01-26T17:36:20.056Z,23.35
2023-01-26T17:38:48.356Z,23.37
2023-01-26T17:41:18.036Z,23.04
2023-01-26T17:43:46.168Z,23.25
2023-01-26T17:46:16.208Z,22.89
2023-01-26T17:48:45.530Z,23.06
2023-01-26T17:51:16.545Z,22.84
2023-01-26T17:53:46.323Z,22.60
2023-01-26T17:56:16.866Z,22.64
2023-01-26T17:58:49.714Z,22.57
2023-01-26T18:01:17.875Z,22.84
2023-01-26T18:03:45.850Z,22.42
2023-01-26T18:06:14.322Z,22.72
2023-01-26T18:08:42.766Z,22.47
2023-01-26T18:11:13.116Z,22.43
2023-01-26T18:13:41.682Z,22.37
2023-01-26T18:16:15.196Z,22.49
2023-01-26T18:18:43.377Z,22.68
2023-01-26T18:21:12.929Z,22.64
2023-01-26T18:23:41.095Z,22.66
2023-01-26T18:26:09.090Z,22.17
2023-01-26T18:28:37.120Z,22.60
2023-01-26T18:31:14.374Z,22.32
2023-01-26T18:33:42.837Z,22.49
2023-01-26T18:36:13.228Z,22.47
2023-01-26T18:38:42.499Z,22.11
2023-01-26T18:41:12.277Z,22.45
2023-01-26T18:43:40.504Z,21.91
2023-01-26T18:46:08.647Z,22.38
2023-01-26T18:48:38.142Z,22.19
2023-01-26T18:51:07.329Z,21.96
2023-01-26T18:53:37.177Z,22.13
2023-01-26T18:56:06.490Z,22.26
2023-01-26T18:58:35.075Z,22.13
2023-01-26T19:01:05.716Z,21.77
2023-01-26T19:03:34.210Z,21.99
2023-01-26T19:06:04.269Z,22.02
2023-01-26T19:08:34.352Z,21.99
2023-01-26T19:11:05.594Z,21.75
2023-01-26T19:13:33.594Z,21.87
2023-01-26T19:16:01.562Z,21.61
2023-01-26T19:18:29.519Z,21.79
2023-01-26T19:20:58.093Z,21.87
2023-01-26T19:23:27.629Z,21.78
2023-01-26T19:25:55.734Z,21.52
2023-01-26T19:28:23.854Z,21.83
2023-01-26T19:30:51.840Z,21.90
2023-01-26T19:33:25.857Z,21.57
2023-01-26T19:35:53.920Z,21.74
2023-01-26T19:38:22.174Z,21.58
2023-01-26T19:40:52.939Z,21.73
2023-01-26T19:43:21.724Z,21.41
2023-01-26T19:45:53.027Z,21.76
2023-01-26T19:48:22.070Z,21.88
2023-01-26T19:51:03.057Z,21.44
2023-01-26T19:53:31.841Z,21.72
2023-01-26T19:56:05.578Z,21.49
2023-01-26T19:58:33.701Z,21.47
2023-01-26T20:01:02.755Z,21.66
2023-01-26T20:03:31.056Z,21.58
2023-01-26T20:05:59.301Z,21.54
2023-01-26T20:08:28.221Z,21.09
2023-01-26T20:11:02.874Z,21.55
2023-01-26T20:13:32.397Z,21.21
2023-01-26T20:16:00.647Z,21.02
2023-01-26T20:18:28.673Z,21.02
2023-01-26T20:21:00.416Z,21.42
2023-01-26T20:23:29.656Z,21.44
2023-01-26T20:26:02.565Z,20.90
2023-01-26T20:28:32.091Z,21.34
2023-01-26T20:31:07.769Z,21.20
2023-01-26T20:33:36.758Z,21.06
2023-01-26T20:36:07.574Z,20.97
2023-01-26T20:38:36.035Z,21.34
2023-01-26T20:41:08.288Z,21.25
2023-01-26T20:43:41.595Z,21.13
2023-01-26T20:46:17.748Z,21.47
2023-01-26T20:48:46.436Z,21.33
2023-01-26T20:51:16.959Z,21.39
2023-01-26T20:53:46.850Z,21.72
2023-01-26T20:56:15.185Z,21.23
2023-01-26T20:58:44.806Z,21.51
2023-01-26T21:01:14.804Z,21.79
2023-01-26T21:03:43.302Z,21.71
2023-01-26T21:06:13.451Z,21.20
2023-01-26T21:08:42.309Z,21.27
2023-01-26T21:11:13.919Z,20.99
2023-01-26T21:13:42.712Z,21.27
2023-01-26T21:16:14.638Z,21.00
2023-01-26T21:18:42.820Z,21.14
2023-01-26T21:21:13.600Z,20.86
2023-01-26T21:23:42.170Z,20.58
2023-01-26T21:26:13.712Z,20.51
2023-01-26T21:28:41.713Z,20.88
2023-01-26T21:31:13.734Z,20.47
2023-01-26T21:33:43.839Z,20.82
2023-01-26T21:36:14.247Z,20.85
2023-01-26T21:38:43.976Z,20.82
2023-01-26T21:41:27.241Z,20.50
2023-01-26T21:43:56.842Z,20.54
2023-01-26T21:46:26.167Z,20.67
2023-01-26T21:48:54.164Z,20.65
2023-01-26T21:51:40.396Z,20.52
2023-01-26T21:54:08.536Z,20.50
2023-01-26T21:56:37.081Z,20.25
2023-01-26T21:59:07.694Z,20.22
2023-01-26T22:01:39.231Z,20.58
2023-01-26T22:04:09.919Z,20.58
2023-01-26T22:06:39.168Z,20.61
2023-01-26T22:09:09.082Z,20.75
2023-01-26T22:11:37.103Z,20.95
2023-01-26T22:14:05.145Z,21.04
2023-01-26T22:16:33.558Z,20.84
2023-01-26T22:19:03.705Z,20.77
2023-01-26T22:21:32.475Z,20.74
2023-01-26T22:24:00.517Z,20.69
2023-01-26T22:26:28.620Z,20.93
2023-01-26T22:28:58.153Z,21.11
2023-01-26T22:31:28.063Z,20.85
2023-01-26T22:33:57.310Z,21.16
2023-01-26T22:36:27.601Z,20.96
2023-01-26T22:38:55.838Z,21.04
2023-01-26T22:41:25.745Z,20.97
2023-01-26T22:43:55.697Z,21.10
2023-01-26T22:46:25.323Z,21.24
2023-01-26T22:48:53.660Z,21.09
2023-01-26T22:51:23.684Z,20.90
2023-01-26T22:53:54.571Z,21.12
2023-01-26T22:56:23.161Z,20.98
2023-01-26T22:58:57.965Z,20.78
2023-01-26T23:01:28.464Z,20.70
2023-01-26T23:03:57.279Z,20.98
2023-01-26T23:06:25.664Z,20.63
2023-01-26T23:08:55.348Z,20.72
2023-01-26T23:11:26.068Z,20.78
2023-01-26T23:13:55.671Z,20.78
2023-01-26T23:16:24.680Z,20.78
2023-01-26T23:18:53.673Z,20.37
2023-01-26T23:21:22.228Z,20.40
2023-01-26T23:23:50.565Z,20.35
2023-01-26T23:26:20.533Z,20.47
2023-01-26T23:28:48.920Z,20.42
2023-01-26T23:31:18.594Z,20.63
2023-01-26T23:33:47.035Z,20.69
2023-01-26T23:36:16.172Z,20.43
2023-01-26T23:38:45.652Z,20.65
2023-01-26T23:41:14.434Z,20.16
2023-01-26T23:43:44.094Z,20.61
2023-01-26T23:46:13.262Z,20.40
2023-01-26T23:48:41.638Z,20.44
2023-01-26T23:51:11.809Z,20.43
2023-01-26T23:53:40.045Z,20.60
2023-01-26T23:56:09.669Z,20.08
2023-01-26T23:58:38.392Z,19.98
